createdAt,value
2023-05-21T00:01:39.202Z,16.57
2023-05-21T00:04:07.663Z,16.55
2023-05-21T00:06:36.076Z,16.46
2023-05-21T00:09:05.730Z,16.38
2023-05-21T00:11:33.824Z,16.36
2023-05-21T00:14:01.391Z,16.39
2023-05-21T00:16:29.146Z,16.39
2023-05-21T00:18:58.098Z,16.36
2023-05-21T00:21:26.459Z,16.37
2023-05-21T00:23:56.338Z,16.35
2023-05-21T00:26:25.340Z,16.33
2023-05-21T00:28:52.845Z,16.35
2023-05-21T00:31:20.478Z,16.30
2023-05-21T00:33:48.096Z,16.32
2023-05-21T00:36:15.826Z,16.29
2023-05-21T00:38:45.580Z,16.19
2023-05-21T00:41:13.393Z,16.25
2023-05-21T00:43:42.411Z,16.25
2023-05-21T00:46:13.663Z,16.22
2023-05-21T00:48:41.348Z,16.19
2023-05-21T00:51:09.023Z,16.21
2023-05-21T00:53:36.948Z,16.15
2023-05-21T00:56:05.144Z,16.16
2023-05-21T00:58:33.373Z,16.13
2023-05-21T01:01:03.584Z,16.15
2023-05-21T01:03:38.501Z,16.12
2023-05-21T01:06:06.780Z,16.10
2023-05-21T01:08:34.981Z,16.14
2023-05-21T01:11:03.181Z,16.08
2023-05-21T01:13:31.334Z,16.09
2023-05-21T01:15:59.882Z,16.06
2023-05-21T01:18:28.744Z,16.06
2023-05-21T01:20:59.270Z,15.99
2023-05-21T01:23:28.435Z,16.04
2023-05-21T01:25:56.077Z,15.97
2023-05-21T01:28:23.639Z,16.05
2023-05-21T01:30:51.268Z,16.01
2023-05-21T01:33:23.321Z,15.99
2023-05-21T01:35:53.693Z,15.99
2023-05-21T01:38:24.182Z,16.03
2023-05-21T01:40:54.984Z,16.02
2023-05-21T01:43:23.699Z,16.01
2023-05-21T01:45:52.691Z,16.03
2023-05-21T01:48:20.294Z,16.05
2023-05-21T01:50:48.682Z,16.00
2023-05-21T01:53:17.218Z,15.99
2023-05-21T01:55:45.885Z,15.96
2023-05-21T01:58:15.644Z,15.93
2023-05-21T02:00:45.320Z,15.95
2023-05-21T02:03:13.748Z,15.91
2023-05-21T02:05:41.345Z,15.81
2023-05-21T02:08:09.259Z,15.90
2023-05-21T02:10:36.759Z,15.88
2023-05-21T02:13:04.343Z,15.91
2023-05-21T02:15:34.780Z,15.90
2023-05-21T02:18:02.735Z,15.87
2023-05-21T02:20:31.829Z,15.86
2023-05-21T02:22:59.342Z,15.86
2023-05-21T02:25:26.887Z,15.86
2023-05-21T02:27:56.653Z,15.87
2023-05-21T02:30:24.179Z,15.85
2023-05-21T02:32:53.056Z,15.86
2023-05-21T02:35:20.639Z,15.86
2023-05-21T02:37:48.940Z,15.85
2023-05-21T02:40:16.541Z,15.78
2023-05-21T02:42:44.051Z,15.83
2023-05-21T02:45:12.439Z,15.76
2023-05-21T02:47:40.768Z,15.69
2023-05-21T02:50:10.263Z,15.65
2023-05-21T02:52:37.757Z,15.68
2023-05-21T02:55:05.986Z,15.73
2023-05-21T02:57:33.451Z,15.72
2023-05-21T03:00:01.095Z,15.76
2023-05-21T03:02:28.645Z,15.72
2023-05-21T03:04:56.149Z,15.71
2023-05-21T03:07:24.976Z,15.76
2023-05-21T03:09:52.468Z,15.71
2023-05-21T03:12:19.942Z,15.76
2023-05-21T03:14:47.449Z,15.75
2023-05-21T03:17:15.211Z,15.71
2023-05-21T03:19:42.953Z,15.68
2023-05-21T03:22:11.332Z,15.72
2023-05-21T03:24:41.335Z,15.73
2023-05-21T03:27:08.946Z,15.79
2023-05-21T03:29:37.553Z,15.74
2023-05-21T03:32:06.207Z,15.71
2023-05-21T03:34:35.498Z,15.67
2023-05-21T03:37:03.003Z,15.69
2023-05-21T03:39:30.545Z,15.68
2023-05-21T03:41:59.379Z,15.66
2023-05-21T03:44:26.879Z,15.59
2023-05-21T03:46:54.450Z,15.69
2023-05-21T03:49:21.943Z,15.68
2023-05-21T03:51:49.431Z,15.74
2023-05-21T03:54:16.929Z,15.70
2023-05-21T03:56:44.462Z,15.72
2023-05-21T03:59:13.287Z,15.79
2023-05-21T04:01:40.813Z,15.81
2023-05-21T04:04:08.430Z,15.76
2023-05-21T04:06:36.757Z,15.76
2023-05-21T04:09:04.718Z,15.78
2023-05-21T04:11:32.286Z,15.83
2023-05-21T04:13:59.807Z,15.86
2023-05-21T04:16:28.743Z,15.80
2023-05-21T04:18:56.438Z,15.78
2023-05-21T04:21:23.995Z,15.78
2023-05-21T04:23:53.826Z,15.84
2023-05-21T04:26:21.339Z,15.82
2023-05-21T04:28:48.821Z,15.83
2023-05-21T04:31:16.399Z,15.83
2023-05-21T04:33:45.802Z,15.83
2023-05-21T04:36:13.451Z,15.87
2023-05-21T04:38:41.796Z,15.88
2023-05-21T04:41:10.775Z,15.92
2023-05-21T04:43:43.863Z,15.94
2023-05-21T04:46:11.364Z,15.95
2023-05-21T04:48:39.036Z,15.86
2023-05-21T04:51:07.907Z,15.90
2023-05-21T04:53:35.862Z,15.88
2023-05-21T04:56:03.886Z,15.95
2023-05-21T04:58:32.866Z,15.97
2023-05-21T05:01:02.914Z,16.05
2023-05-21T05:03:31.034Z,16.12
2023-05-21T05:05:58.567Z,16.18
2023-05-21T05:08:27.450Z,16.15
2023-05-21T05:10:54.930Z,16.19
2023-05-21T05:13:22.494Z,16.24
2023-05-21T05:15:51.036Z,16.30
2023-05-21T05:18:19.490Z,16.33
2023-05-21T05:20:47.674Z,16.41
2023-05-21T05:23:15.679Z,16.46
2023-05-21T05:25:44.553Z,16.45
2023-05-21T05:28:12.057Z,16.47
2023-05-21T05:30:39.623Z,16.52
2023-05-21T05:33:07.166Z,16.51
2023-05-21T05:35:34.832Z,16.51
2023-05-21T05:38:02.452Z,16.57
2023-05-21T05:40:29.948Z,16.62
2023-05-21T05:42:58.785Z,16.71
2023-05-21T05:45:26.717Z,16.75
2023-05-21T05:47:54.256Z,16.75
2023-05-21T05:50:22.144Z,16.75
2023-05-21T05:52:49.638Z,16.78
2023-05-21T05:55:17.640Z,16.84
2023-05-21T05:57:45.355Z,16.86
2023-05-21T06:00:15.574Z,16.92
2023-05-21T06:02:43.180Z,17.00
2023-05-21T06:05:11.516Z,17.04
2023-05-21T06:07:39.451Z,17.07
2023-05-21T06:10:07.731Z,17.09
2023-05-21T06:12:35.474Z,17.09
2023-05-21T06:15:03.233Z,17.09
2023-05-21T06:17:32.166Z,17.10
2023-05-21T06:19:59.698Z,17.11
2023-05-21T06:22:27.222Z,17.10
2023-05-21T06:24:54.756Z,17.17
2023-05-21T06:27:22.376Z,17.21
2023-05-21T06:29:49.879Z,17.28
2023-05-21T06:32:17.436Z,17.31
2023-05-21T06:34:46.785Z,17.37
2023-05-21T06:37:14.295Z,17.39
2023-05-21T06:39:41.787Z,17.39
2023-05-21T06:42:09.292Z,17.40
2023-05-21T06:44:36.984Z,17.41
2023-05-21T06:47:04.561Z,17.49
2023-05-21T06:49:33.048Z,17.56
2023-05-21T06:52:02.350Z,17.65
2023-05-21T06:54:29.961Z,17.73
2023-05-21T06:56:57.432Z,17.82
2023-05-21T06:59:24.953Z,17.89
2023-05-21T07:01:52.614Z,18.02
2023-05-21T07:04:20.131Z,18.08
2023-05-21T07:06:48.436Z,18.19
2023-05-21T07:09:18.212Z,18.29
2023-05-21T07:11:45.693Z,18.38
2023-05-21T07:14:13.246Z,18.48
2023-05-21T07:16:40.846Z,18.62
2023-05-21T07:19:08.402Z,18.80
2023-05-21T07:21:35.964Z,18.86
2023-05-21T07:24:03.503Z,18.82
2023-05-21T07:26:32.360Z,18.92
2023-05-21T07:28:59.957Z,18.96
2023-05-21T07:31:27.884Z,19.02
2023-05-21T07:33:55.479Z,19.07
2023-05-21T07:36:22.982Z,19.20
2023-05-21T07:38:51.098Z,19.33
2023-05-21T07:41:18.929Z,19.38
2023-05-21T07:43:47.979Z,19.51
2023-05-21T07:46:15.558Z,19.45
2023-05-21T07:48:43.568Z,19.54
2023-05-21T07:51:11.486Z,19.65
2023-05-21T07:53:39.093Z,19.58
2023-05-21T07:56:07.276Z,19.53
2023-05-21T07:58:35.365Z,19.59
2023-05-21T08:01:04.284Z,19.58
2023-05-21T08:03:32.457Z,19.57
2023-05-21T08:06:00.072Z,19.67
2023-05-21T08:08:27.646Z,19.68
2023-05-21T08:10:55.504Z,19.63
2023-05-21T08:13:23.109Z,19.59
2023-05-21T08:15:52.838Z,19.59
2023-05-21T08:18:23.690Z,19.62
2023-05-21T08:20:51.623Z,19.69
2023-05-21T08:23:19.151Z,19.75
2023-05-21T08:25:46.755Z,19.82
2023-05-21T08:28:14.340Z,19.85
2023-05-21T08:30:41.960Z,19.94
2023-05-21T08:33:09.520Z,20.08
2023-05-21T08:35:38.797Z,20.10
2023-05-21T08:38:06.558Z,20.14
2023-05-21T08:40:35.413Z,20.24
2023-05-21T08:43:02.937Z,20.17
2023-05-21T08:45:37.726Z,20.26
2023-05-21T08:48:07.151Z,20.37
2023-05-21T08:50:34.641Z,20.46
2023-05-21T08:53:07.577Z,20.62
2023-05-21T08:55:44.518Z,20.75
2023-05-21T08:58:12.208Z,20.87
2023-05-21T09:00:39.708Z,20.96
2023-05-21T09:03:10.266Z,20.99
2023-05-21T09:05:40.557Z,21.01
2023-05-21T09:08:15.174Z,21.05
2023-05-21T09:10:47.945Z,21.19
2023-05-21T09:13:17.232Z,21.36
2023-05-21T09:15:45.161Z,21.60
2023-05-21T09:18:13.397Z,21.79
2023-05-21T09:20:41.515Z,21.94
2023-05-21T09:23:12.514Z,22.02
2023-05-21T09:25:40.268Z,21.99
2023-05-21T09:28:13.151Z,21.89
2023-05-21T09:30:45.241Z,22.08
2023-05-21T09:33:12.948Z,21.98
2023-05-21T09:35:46.312Z,21.97
2023-05-21T09:38:15.186Z,22.12
2023-05-21T09:40:46.480Z,22.26
2023-05-21T09:43:15.454Z,22.37
2023-05-21T09:45:52.983Z,22.48
2023-05-21T09:48:34.467Z,22.54
2023-05-21T09:51:12.919Z,22.62
2023-05-21T09:53:52.123Z,22.84
2023-05-21T09:56:24.676Z,22.98
2023-05-21T09:58:54.574Z,23.07
2023-05-21T10:01:22.697Z,23.15
2023-05-21T10:04:01.802Z,23.09
2023-05-21T10:06:31.196Z,23.12
2023-05-21T10:09:02.547Z,23.30
2023-05-21T10:11:32.941Z,23.27
2023-05-21T10:14:04.312Z,23.35
2023-05-21T10:16:34.089Z,23.32
2023-05-21T10:19:01.848Z,23.34
2023-05-21T10:21:29.517Z,23.41
2023-05-21T10:24:01.275Z,23.39
2023-05-21T10:26:29.310Z,23.42
2023-05-21T10:28:58.452Z,23.54
2023-05-21T10:31:26.640Z,23.54
2023-05-21T10:33:55.325Z,23.55
2023-05-21T10:36:23.164Z,23.59
2023-05-21T10:38:50.729Z,23.56
2023-05-21T10:41:20.898Z,23.71
2023-05-21T10:44:05.646Z,23.86
2023-05-21T10:46:54.216Z,23.84
2023-05-21T10:49:36.407Z,23.95
2023-05-21T10:52:09.073Z,24.06
2023-05-21T10:55:09.509Z,24.12
2023-05-21T10:58:03.383Z,23.99
2023-05-21T11:00:32.430Z,23.95
2023-05-21T11:03:00.567Z,23.92
2023-05-21T11:05:39.631Z,24.05
2023-05-21T11:08:07.491Z,24.14
2023-05-21T11:10:39.690Z,24.20
2023-05-21T11:13:13.948Z,24.23
2023-05-21T11:16:05.726Z,24.33
2023-05-21T11:19:00.678Z,24.44
2023-05-21T11:21:35.420Z,24.45
2023-05-21T11:24:06.304Z,24.50
2023-05-21T11:27:04.776Z,24.51
2023-05-21T11:29:41.567Z,24.57
2023-05-21T11:32:10.413Z,24.76
2023-05-21T11:34:39.643Z,25.00
2023-05-21T11:37:28.977Z,25.23
2023-05-21T11:39:57.957Z,25.29
2023-05-21T11:42:32.650Z,25.33
2023-05-21T11:45:02.698Z,25.45
2023-05-21T11:47:31.983Z,25.62
2023-05-21T11:50:01.122Z,25.63
2023-05-21T11:52:30.338Z,25.61
2023-05-21T11:54:59.790Z,25.67
2023-05-21T11:57:30.802Z,25.60
2023-05-21T11:59:59.707Z,25.40
2023-05-21T12:02:33.878Z,25.46
2023-05-21T12:05:01.870Z,25.51
2023-05-21T12:07:31.289Z,25.51
2023-05-21T12:09:59.441Z,25.52
2023-05-21T12:12:33.028Z,25.56
2023-05-21T12:15:12.553Z,25.58
2023-05-21T12:17:42.033Z,25.67
2023-05-21T12:20:10.798Z,25.64
2023-05-21T12:22:43.494Z,25.71
2023-05-21T12:25:11.978Z,25.70
2023-05-21T12:27:40.009Z,25.73
2023-05-21T12:30:09.677Z,25.81
2023-05-21T12:32:38.179Z,25.94
2023-05-21T12:35:07.828Z,25.99
2023-05-21T12:37:35.819Z,25.86
2023-05-21T12:40:07.717Z,25.87
2023-05-21T12:42:35.636Z,25.83
2023-05-21T12:45:07.189Z,25.84
2023-05-21T12:47:34.871Z,25.80
2023-05-21T12:50:06.365Z,25.83
2023-05-21T12:52:35.482Z,25.96
2023-05-21T12:55:03.077Z,26.13
2023-05-21T12:57:38.737Z,26.13
2023-05-21T13:00:07.854Z,26.20
2023-05-21T13:02:36.971Z,26.15
2023-05-21T13:05:06.456Z,26.25
2023-05-21T13:07:36.489Z,26.43
2023-05-21T13:10:05.994Z,26.75
2023-05-21T13:12:34.425Z,27.10
2023-05-21T13:15:03.235Z,27.16
2023-05-21T13:17:31.061Z,27.17
2023-05-21T13:20:09.394Z,27.12
2023-05-21T13:22:42.256Z,26.99
2023-05-21T13:25:11.024Z,27.02
2023-05-21T13:27:38.721Z,27.25
2023-05-21T13:30:07.675Z,27.36
2023-05-21T13:32:35.424Z,27.41
2023-05-21T13:35:03.289Z,27.13
2023-05-21T13:37:30.796Z,27.37
2023-05-21T13:40:00.226Z,27.40
2023-05-21T13:42:28.343Z,27.26
2023-05-21T13:44:55.963Z,27.39
2023-05-21T13:47:24.018Z,27.15
2023-05-21T13:49:51.947Z,26.82
2023-05-21T13:52:22.248Z,26.91
2023-05-21T13:54:49.834Z,27.12
2023-05-21T13:57:18.969Z,27.26
2023-05-21T13:59:46.493Z,27.14
2023-05-21T14:02:14.165Z,27.08
2023-05-21T14:04:41.713Z,27.02
2023-05-21T14:07:09.744Z,27.13
2023-05-21T14:09:37.436Z,27.17
2023-05-21T14:12:06.766Z,27.21
2023-05-21T14:14:36.185Z,27.10
2023-05-21T14:17:03.878Z,27.14
2023-05-21T14:19:31.768Z,27.20
2023-05-21T14:21:59.982Z,27.09
2023-05-21T14:24:27.593Z,27.28
2023-05-21T14:26:55.523Z,27.28
2023-05-21T14:29:23.344Z,27.23
2023-05-21T14:31:52.417Z,27.23
2023-05-21T14:34:20.027Z,27.11
2023-05-21T14:36:47.563Z,27.24
2023-05-21T14:39:15.099Z,27.48
2023-05-21T14:41:42.643Z,27.49
2023-05-21T14:44:10.130Z,27.52
2023-05-21T14:46:37.770Z,27.47
2023-05-21T14:49:06.665Z,27.35
2023-05-21T14:51:34.182Z,27.46
2023-05-21T14:54:01.727Z,27.63
2023-05-21T14:56:29.212Z,27.48
2023-05-21T14:58:57.168Z,27.51
2023-05-21T15:01:24.936Z,27.59
2023-05-21T15:03:52.601Z,27.63
2023-05-21T15:06:21.578Z,27.39
2023-05-21T15:08:49.186Z,27.62
2023-05-21T15:11:16.707Z,27.49
2023-05-21T15:13:44.202Z,27.53
2023-05-21T15:16:14.331Z,27.57
2023-05-21T15:18:44.831Z,27.35
2023-05-21T15:21:12.658Z,27.48
2023-05-21T15:23:42.297Z,27.54
2023-05-21T15:26:10.211Z,27.43
2023-05-21T15:28:38.321Z,27.58
2023-05-21T15:31:06.034Z,27.57
2023-05-21T15:33:34.156Z,27.53
2023-05-21T15:36:03.307Z,27.64
2023-05-21T15:38:31.219Z,27.60
2023-05-21T15:41:00.367Z,27.60
2023-05-21T15:43:27.959Z,27.92
2023-05-21T15:45:57.826Z,27.98
2023-05-21T15:48:25.546Z,27.88
2023-05-21T15:50:53.108Z,27.95
2023-05-21T15:53:20.681Z,27.59
2023-05-21T15:55:48.831Z,27.95
2023-05-21T15:58:17.655Z,27.81
2023-05-21T16:00:45.286Z,27.92
2023-05-21T16:03:13.457Z,27.78
2023-05-21T16:05:41.351Z,27.95
2023-05-21T16:08:10.718Z,27.89
2023-05-21T16:10:39.930Z,27.94
2023-05-21T16:13:07.811Z,27.84
2023-05-21T16:15:37.312Z,27.52
2023-05-21T16:18:05.346Z,27.58
2023-05-21T16:20:33.338Z,27.54
2023-05-21T16:23:00.901Z,27.74
2023-05-21T16:25:31.078Z,27.36
2023-05-21T16:27:58.622Z,27.46
2023-05-21T16:30:26.460Z,27.51
2023-05-21T16:32:55.675Z,27.94
2023-05-21T16:35:23.233Z,28.06
2023-05-21T16:37:51.058Z,27.71
2023-05-21T16:40:18.588Z,27.51
2023-05-21T16:42:46.153Z,27.74
2023-05-21T16:45:20.342Z,27.74
2023-05-21T16:47:48.728Z,28.07
2023-05-21T16:50:18.041Z,28.28
2023-05-21T16:52:45.738Z,28.49
2023-05-21T16:55:13.303Z,28.72
2023-05-21T16:57:40.900Z,28.71
2023-05-21T17:00:09.350Z,28.68
2023-05-21T17:02:37.038Z,28.78
2023-05-21T17:05:05.161Z,28.95
2023-05-21T17:07:34.067Z,29.14
2023-05-21T17:10:01.578Z,29.23
2023-05-21T17:12:29.094Z,29.23
2023-05-21T17:14:56.608Z,28.87
2023-05-21T17:17:24.202Z,28.76
2023-05-21T17:19:51.706Z,28.77
2023-05-21T17:22:19.732Z,28.68
2023-05-21T17:24:48.746Z,28.64
2023-05-21T17:27:16.312Z,28.46
2023-05-21T17:29:44.863Z,28.08
2023-05-21T17:32:12.942Z,27.95
2023-05-21T17:34:40.578Z,27.61
2023-05-21T17:37:08.114Z,27.39
2023-05-21T17:39:35.623Z,27.22
2023-05-21T17:42:04.884Z,27.60
2023-05-21T17:44:32.438Z,27.67
2023-05-21T17:46:59.993Z,27.56
2023-05-21T17:49:27.732Z,27.33
2023-05-21T17:51:55.445Z,27.23
2023-05-21T17:54:23.275Z,27.05
2023-05-21T17:56:50.789Z,27.07
2023-05-21T17:59:21.135Z,26.99
2023-05-21T18:01:48.716Z,26.92
2023-05-21T18:04:16.368Z,26.80
2023-05-21T18:06:44.037Z,26.79
2023-05-21T18:09:14.194Z,26.82
2023-05-21T18:11:43.543Z,26.62
2023-05-21T18:14:11.103Z,26.56
2023-05-21T18:16:40.029Z,26.40
2023-05-21T18:19:07.721Z,26.48
2023-05-21T18:21:35.567Z,26.38
2023-05-21T18:24:03.255Z,26.30
2023-05-21T18:26:31.031Z,26.06
2023-05-21T18:28:58.952Z,25.72
2023-05-21T18:31:26.707Z,25.74
2023-05-21T18:33:55.645Z,25.50
2023-05-21T18:36:23.850Z,25.42
2023-05-21T18:38:52.224Z,25.40
2023-05-21T18:41:19.956Z,25.30
2023-05-21T18:43:47.567Z,25.11
2023-05-21T18:46:15.096Z,24.68
2023-05-21T18:48:42.630Z,24.53
2023-05-21T18:51:11.465Z,24.55
2023-05-21T18:53:39.174Z,24.42
2023-05-21T18:56:07.401Z,24.35
2023-05-21T18:58:35.825Z,24.16
2023-05-21T19:01:03.407Z,24.00
2023-05-21T19:03:32.046Z,23.82
2023-05-21T19:05:59.591Z,23.62
2023-05-21T19:08:28.531Z,23.49
2023-05-21T19:10:56.303Z,23.36
2023-05-21T19:13:24.370Z,23.29
2023-05-21T19:15:51.963Z,23.14
2023-05-21T19:18:19.595Z,23.05
2023-05-21T19:20:47.210Z,22.97
2023-05-21T19:23:15.186Z,22.74
2023-05-21T19:25:44.269Z,22.62
2023-05-21T19:28:11.909Z,22.52
2023-05-21T19:30:39.767Z,22.40
2023-05-21T19:33:07.545Z,22.47
2023-05-21T19:35:35.093Z,22.33
2023-05-21T19:38:04.955Z,22.25
2023-05-21T19:40:32.854Z,22.01
2023-05-21T19:43:02.699Z,22.01
2023-05-21T19:45:30.263Z,21.94
2023-05-21T19:47:59.200Z,21.86
2023-05-21T19:50:28.470Z,21.77
2023-05-21T19:52:56.034Z,21.54
2023-05-21T19:55:24.540Z,21.44
2023-05-21T19:57:52.293Z,21.42
2023-05-21T20:00:22.273Z,21.38
2023-05-21T20:02:49.892Z,21.30
2023-05-21T20:05:18.519Z,21.14
2023-05-21T20:07:46.046Z,21.00
2023-05-21T20:10:13.633Z,20.90
2023-05-21T20:12:41.145Z,20.79
2023-05-21T20:15:09.346Z,20.61
2023-05-21T20:17:39.343Z,20.59
2023-05-21T20:20:10.304Z,20.47
2023-05-21T20:22:37.925Z,20.43
2023-05-21T20:25:08.527Z,20.32
2023-05-21T20:27:38.521Z,20.23
2023-05-21T20:30:07.808Z,20.24
2023-05-21T20:32:35.655Z,20.13
2023-05-21T20:35:05.047Z,20.19
2023-05-21T20:37:33.806Z,20.14
2023-05-21T20:40:01.369Z,20.04
2023-05-21T20:42:34.575Z,19.79
2023-05-21T20:45:02.906Z,19.65
2023-05-21T20:47:51.044Z,19.63
2023-05-21T20:50:21.717Z,19.74
2023-05-21T20:52:49.569Z,19.64
2023-05-21T20:55:17.267Z,19.36
2023-05-21T20:57:44.817Z,19.28
2023-05-21T21:00:13.610Z,19.28
2023-05-21T21:02:41.313Z,19.21
2023-05-21T21:05:10.308Z,19.20
2023-05-21T21:07:40.019Z,19.11
2023-05-21T21:10:08.565Z,19.11
2023-05-21T21:12:36.115Z,19.02
2023-05-21T21:15:03.907Z,18.87
2023-05-21T21:17:31.485Z,18.78
2023-05-21T21:19:59.045Z,18.78
2023-05-21T21:22:26.753Z,18.67
2023-05-21T21:24:55.746Z,18.70
2023-05-21T21:27:23.888Z,18.66
2023-05-21T21:29:51.420Z,18.59
2023-05-21T21:32:18.977Z,18.48
2023-05-21T21:34:46.530Z,18.44
2023-05-21T21:37:14.071Z,18.44
2023-05-21T21:39:41.626Z,18.43
2023-05-21T21:42:11.112Z,18.43
2023-05-21T21:44:39.271Z,18.28
2023-05-21T21:47:07.377Z,18.25
2023-05-21T21:49:35.115Z,18.20
2023-05-21T21:52:02.688Z,18.14
2023-05-21T21:54:30.344Z,18.16
2023-05-21T21:56:57.965Z,18.14
2023-05-21T21:59:26.861Z,18.07
2023-05-21T22:01:54.436Z,18.06
2023-05-21T22:04:22.159Z,18.07
2023-05-21T22:06:50.057Z,18.04
2023-05-21T22:09:17.961Z,17.99
2023-05-21T22:11:45.525Z,18.06
2023-05-21T22:14:13.082Z,18.02
2023-05-21T22:16:43.130Z,18.09
2023-05-21T22:19:12.769Z,18.16
2023-05-21T22:21:41.908Z,18.11
2023-05-21T22:24:20.629Z,18.06
2023-05-21T22:26:57.409Z,18.20
2023-05-21T22:29:24.977Z,18.21
2023-05-21T22:31:53.995Z,18.35
2023-05-21T22:34:22.285Z,18.57
2023-05-21T22:36:49.865Z,18.73
2023-05-21T22:39:17.997Z,19.13
2023-05-21T22:41:45.796Z,19.21
2023-05-21T22:44:13.429Z,19.16
2023-05-21T22:46:42.170Z,19.25
2023-05-21T22:49:11.154Z,19.33
2023-05-21T22:51:39.160Z,19.32
2023-05-21T22:54:06.777Z,19.53
2023-05-21T22:56:34.355Z,19.50
2023-05-21T22:59:01.913Z,19.53
2023-05-21T23:01:29.506Z,19.52
2023-05-21T23:03:57.025Z,19.46
2023-05-21T23:06:25.900Z,19.47
2023-05-21T23:08:53.464Z,19.51
2023-05-21T23:11:21.236Z,19.58
2023-05-21T23:13:48.715Z,19.51
2023-05-21T23:16:16.890Z,19.52
2023-05-21T23:18:44.526Z,19.56
2023-05-21T23:21:12.165Z,19.47
2023-05-21T23:23:41.085Z,19.45
2023-05-21T23:26:08.621Z,19.50
2023-05-21T23:28:37.102Z,19.53
2023-05-21T23:31:04.787Z,19.46
2023-05-21T23:33:32.366Z,19.41
2023-05-21T23:35:59.975Z,19.40
2023-05-21T23:38:27.559Z,19.45
2023-05-21T23:40:56.417Z,19.44
2023-05-21T23:43:23.905Z,19.41
2023-05-21T23:45:51.463Z,19.39
2023-05-21T23:48:19.063Z,19.43
2023-05-21T23:50:46.612Z,19.43
2023-05-21T23:53:14.124Z,19.42
2023-05-21T23:55:42.238Z,19.39
2023-05-21T23:58:11.425Z,19.31
